Time;durP1;ratioP1;P1;durP2;ratioP2;P2;SDS_P1;SDS_P2;PMS_P1;PMS_P2;Temp;Humidity;BMP_temperature;BMP_pressure;BME280_temperature;BME280_humidity;BME280_pressure;Samples;Min_cycle;Max_cycle;Signal;HPM_P1;HPM_P2
2024/02/28 00:01:31;;;;;;;;;;;;;;;26.45;38.12;93941.53;5062827;28;7111;-40
2024/02/28 00:03:58;;;;;;;;;;;;;;;26.46;38.05;93940.28;5071230;28;9257;-56
2024/02/28 00:06:41;;;;;;;;;;;;;;;26.46;38.49;93943.78;5067991;28;7465;-55
2024/02/28 00:09:23;;;;;;;;;;;;;;;26.48;37.88;93941.22;5061798;28;7103;-56
2024/02/28 00:11:51;;;;;;;;;;;;;;;26.47;38.47;93944.53;5063676;28;7514;-55
2024/02/28 00:14:17;;;;;;;;;;;;;;;26.45;38.14;93944.28;5094316;28;7255;-57
2024/02/28 00:16:58;;;;;;;;;;;;;;;26.45;38.45;93942.28;5085311;28;7123;-57
2024/02/28 00:19:25;;;;;;;;;;;;;;;26.46;38.42;93940.28;5059280;28;7641;-57
2024/02/28 00:21:52;;;;;;;;;;;;;;;26.45;38.06;93942.28;5055801;28;7196;-57
2024/02/28 00:24:18;;;;;;;;;;;;;;;26.43;38.70;93950.34;5058771;28;9395;-57
2024/02/28 00:26:45;;;;;;;;;;;;;;;26.45;38.06;93947.03;5078449;28;7156;-57
2024/02/28 00:29:11;;;;;;;;;;;;;;;26.45;38.48;93947.03;5056129;28;9424;-38
2024/02/28 00:31:37;;;;;;;;;;;;;;;26.42;38.14;93943.34;5069992;28;7111;-38
2024/02/28 00:34:06;;;;;;;;;;;;;;;26.44;38.35;93945.56;5065572;28;9089;-38
2024/02/28 00:36:32;;;;;;;;;;;;;;;26.44;38.34;93956.59;5063301;28;7289;-38
2024/02/28 00:38:58;;;;;;;;;;;;;;;26.45;38.22;93956.06;5057427;28;7010;-38
2024/02/28 00:41:24;;;;;;;;;;;;;;;26.47;38.21;93961.06;5070648;28;7398;-38
2024/02/28 00:43:56;;;;;;;;;;;;;;;26.48;38.33;93965.31;5059094;28;9210;-39
2024/02/28 00:46:22;;;;;;;;;;;;;;;26.46;37.83;93962.34;5074050;28;9682;-38
2024/02/28 00:48:50;;;;;;;;;;;;;;;26.48;38.11;93957.03;5058026;28;7128;-38
2024/02/28 00:51:17;;;;;;;;;;;;;;;26.47;37.72;93955.56;5080049;28;7260;-38
2024/02/28 00:53:45;;;;;;;;;;;;;;;26.45;38.21;93961.59;5070592;28;9078;-38
2024/02/28 00:56:13;;;;;;;;;;;;;;;26.44;38.07;93962.13;5063106;28;7122;-38
2024/02/28 00:58:40;;;;;;;;;;;;;;;26.46;37.87;93965.09;5079936;28;7342;-38
2024/02/28 01:01:07;;;;;;;;;;;;;;;26.47;38.17;93966.59;5084936;28;7228;-38
2024/02/28 01:03:54;;;;;;;;;;;;;;;26.45;38.16;93963.59;5074194;28;7296;-38
2024/02/28 01:06:40;;;;;;;;;;;;;;;26.46;38.29;93965.84;5074378;28;9529;-38
2024/02/28 01:09:23;;;;;;;;;;;;;;;26.47;38.41;93961.06;5074705;28;7580;-38
2024/02/28 01:11:51;;;;;;;;;;;;;;;26.45;37.97;93969.09;5051202;28;7142;-38
2024/02/28 01:14:17;;;;;;;;;;;;;;;26.45;37.87;93969.84;5056569;28;7027;-38
2024/02/28 01:16:43;;;;;;;;;;;;;;;26.45;37.85;93969.09;5057341;28;7082;-38
2024/02/28 01:19:12;;;;;;;;;;;;;;;26.46;38.24;93965.09;5078893;28;8710;-38
2024/02/28 01:21:42;;;;;;;;;;;;;;;26.43;37.56;93977.16;5056704;28;7254;-38
2024/02/28 01:24:16;;;;;;;;;;;;;;;26.44;38.26;93975.91;5074244;28;7128;-38
2024/02/28 01:26:52;;;;;;;;;;;;;;;26.41;37.59;93963.91;5075023;28;9024;-38
2024/02/28 01:29:32;;;;;;;;;;;;;;;26.43;38.07;93961.38;5069949;28;7697;-38
2024/02/28 01:32:00;;;;;;;;;;;;;;;26.44;38.25;93970.41;5058871;28;6973;-38
2024/02/28 01:34:36;;;;;;;;;;;;;;;26.41;37.89;93965.91;5081981;28;9464;-57
2024/02/28 01:37:05;;;;;;;;;;;;;;;26.42;37.72;93972.94;5081915;28;8990;-57
2024/02/28 01:39:40;;;;;;;;;;;;;;;26.39;38.02;93973.97;5074098;28;8823;-57
2024/02/28 01:42:20;;;;;;;;;;;;;;;26.37;37.83;93971.75;5054079;28;7028;-57
2024/02/28 01:44:49;;;;;;;;;;;;;;;26.39;38.15;93973.97;5056425;28;8428;-57
2024/02/28 01:47:17;;;;;;;;;;;;;;;26.39;38.04;93971.22;5081349;28;7394;-57
2024/02/28 01:49:45;;;;;;;;;;;;;;;26.40;38.08;93978.22;5080626;28;7272;-57
2024/02/28 01:52:14;;;;;;;;;;;;;;;26.39;37.61;93969.22;5075649;28;9378;-57
2024/02/28 01:54:41;;;;;;;;;;;;;;;26.40;37.96;93975.47;5076365;28;8245;-57
2024/02/28 01:57:10;;;;;;;;;;;;;;;26.38;37.90;93975.97;5055146;28;7100;-57
2024/02/28 01:59:37;;;;;;;;;;;;;;;26.36;37.84;93977.81;5074276;28;6860;-57
2024/02/28 02:02:12;;;;;;;;;;;;;;;26.37;37.72;93982.03;5067681;28;7176;-57
2024/02/28 02:04:42;;;;;;;;;;;;;;;26.37;38.09;93980.03;5071627;28;7916;-57
2024/02/28 02:07:10;;;;;;;;;;;;;;;26.39;37.86;93977.47;5075668;28;7232;-57
2024/02/28 02:09:37;;;;;;;;;;;;;;;26.39;37.76;93982.25;5074768;28;8730;-57
2024/02/28 02:12:03;;;;;;;;;;;;;;;26.41;37.81;93991.50;5074587;28;7516;-57
2024/02/28 02:14:29;;;;;;;;;;;;;;;26.41;38.23;93983.22;5053818;28;8697;-57
2024/02/28 02:17:09;;;;;;;;;;;;;;;26.42;37.95;93981.22;5056605;28;7251;-57
2024/02/28 02:19:49;;;;;;;;;;;;;;;26.39;37.78;93980.25;5056108;28;7051;-57
2024/02/28 02:22:38;;;;;;;;;;;;;;;26.38;38.69;93975.97;5057424;28;7409;-57
2024/02/28 02:25:23;;;;;;;;;;;;;;;26.37;38.06;93971.00;5076928;28;7289;-57
2024/02/28 02:28:08;;;;;;;;;;;;;;;26.38;37.88;93975.25;5067411;28;7529;-57
2024/02/28 02:31:01;;;;;;;;;;;;;;;26.36;38.11;93966.78;5084973;28;8985;-57
2024/02/28 02:33:27;;;;;;;;;;;;;;;26.35;38.03;93966.03;4999284;28;7262;-57
2024/02/28 02:36:02;;;;;;;;;;;;;;;26.35;38.27;93968.78;5002747;28;7086;-57
2024/02/28 02:38:28;;;;;;;;;;;;;;;26.34;38.18;93975.56;5006751;28;7372;-57
2024/02/28 02:41:12;;;;;;;;;;;;;;;26.37;37.63;93973.75;4995580;28;7937;-57
2024/02/28 02:43:47;;;;;;;;;;;;;;;26.34;38.08;93964.53;4996397;28;7174;-38
2024/02/28 02:46:14;;;;;;;;;;;;;;;26.33;37.92;93976.09;4999756;28;9135;-38
2024/02/28 02:48:57;;;;;;;;;;;;;;;26.34;38.57;93972.06;4998549;28;9498;-38
2024/02/28 02:51:31;;;;;;;;;;;;;;;26.35;38.08;93965.28;4995876;28;8803;-38
2024/02/28 02:53:57;;;;;;;;;;;;;;;26.36;38.01;93972.28;5019014;28;7278;-38
2024/02/28 02:56:36;;;;;;;;;;;;;;;26.35;38.19;93973.53;5012285;28;7798;-38
2024/02/28 02:59:03;;;;;;;;;;;;;;;26.35;38.00;93987.34;5002369;28;7538;-38
2024/02/28 03:01:39;;;;;;;;;;;;;;;26.33;37.90;93989.88;5007703;28;9748;-38
2024/02/28 03:04:06;;;;;;;;;;;;;;;26.33;37.73;93996.13;5014003;28;7916;-38
2024/02/28 03:06:42;;;;;;;;;;;;;;;26.34;38.32;93997.59;4997949;28;9388;-38
2024/02/28 03:09:19;;;;;;;;;;;;;;;26.35;38.15;94009.38;5012008;28;7171;-38
2024/02/28 03:11:45;;;;;;;;;;;;;;;26.35;38.09;94009.38;5083272;28;7062;-38
2024/02/28 03:14:11;;;;;;;;;;;;;;;26.31;38.46;94008.94;5059075;28;7317;-38
2024/02/28 03:16:47;;;;;;;;;;;;;;;26.33;38.36;94020.19;5067261;28;9810;-38
2024/02/28 03:19:23;;;;;;;;;;;;;;;26.33;38.41;94018.19;5055946;28;7061;-38
2024/02/28 03:21:56;;;;;;;;;;;;;;;26.35;37.79;94014.91;5060438;28;8681;-38
2024/02/28 03:24:29;;;;;;;;;;;;;;;26.35;38.04;94018.41;5065229;28;7159;-38
2024/02/28 03:27:06;;;;;;;;;;;;;;;26.35;38.44;94025.94;5039365;28;8791;-38
2024/02/28 03:29:45;;;;;;;;;;;;;;;26.33;38.27;94023.72;5066105;28;9317;-38
2024/02/28 03:32:36;;;;;;;;;;;;;;;26.35;38.01;94025.94;5078877;28;7425;-38
2024/02/28 03:35:15;;;;;;;;;;;;;;;26.35;37.77;94028.69;5070244;28;7367;-38
2024/02/28 03:38:02;;;;;;;;;;;;;;;26.34;38.28;94027.94;5065016;28;7048;-38
2024/02/28 03:40:42;;;;;;;;;;;;;;;26.33;38.14;94029.22;5053948;28;7036;-38
2024/02/28 03:43:19;;;;;;;;;;;;;;;26.33;37.65;94039.50;5076831;28;7011;-38
2024/02/28 03:45:45;;;;;;;;;;;;;;;26.32;38.36;94043.53;5063983;28;7097;-38
2024/02/28 03:48:10;;;;;;;;;;;;;;;26.30;38.08;94030.25;5050579;28;7448;-38
2024/02/28 03:50:53;;;;;;;;;;;;;;;26.32;38.20;94038.03;5052872;28;7127;-38
2024/02/28 03:53:28;;;;;;;;;;;;;;;26.34;38.09;94041.72;5083801;28;9443;-56
2024/02/28 03:56:23;;;;;;;;;;;;;;;26.33;38.19;94042.25;5082552;28;7619;-38
2024/02/28 03:58:59;;;;;;;;;;;;;;;26.30;37.68;94044.03;5070623;28;8973;-38
2024/02/28 04:01:26;;;;;;;;;;;;;;;26.29;38.21;94053.59;5060068;28;9100;-38
2024/02/28 04:03:54;;;;;;;;;;;;;;;26.30;38.20;94063.34;5056886;28;9737;-39
2024/02/28 04:06:22;;;;;;;;;;;;;;;26.32;38.35;94052.53;5082629;28;7144;-38
2024/02/28 04:08:49;;;;;;;;;;;;;;;26.33;37.82;94056.78;5070037;28;7032;-38
2024/02/28 04:11:19;;;;;;;;;;;;;;;26.34;38.12;94058.28;5082075;28;7320;-38
2024/02/28 04:13:45;;;;;;;;;;;;;;;26.33;38.22;94061.56;5078946;28;7207;-38
2024/02/28 04:16:29;;;;;;;;;;;;;;;26.34;37.93;94063.06;5067027;28;6859;-39
2024/02/28 04:19:14;;;;;;;;;;;;;;;26.33;37.75;94061.56;5063515;28;6836;-38
2024/02/28 04:21:40;;;;;;;;;;;;;;;26.31;37.92;94069.59;5056885;28;7034;-38
2024/02/28 04:24:10;;;;;;;;;;;;;;;26.27;38.25;94069.91;5059570;28;9161;-38
2024/02/28 04:26:39;;;;;;;;;;;;;;;26.29;38.22;94072.16;5071576;28;8668;-38
2024/02/28 04:29:07;;;;;;;;;;;;;;;26.30;38.43;94068.09;5080751;28;9727;-38
2024/02/28 04:31:34;;;;;;;;;;;;;;;26.33;37.79;94072.59;5061322;28;8879;-38
2024/02/28 04:34:02;;;;;;;;;;;;;;;26.31;37.88;94069.59;5070718;28;7383;-38
2024/02/28 04:36:28;;;;;;;;;;;;;;;26.33;38.04;94072.59;5067093;28;7482;-38
2024/02/28 04:38:56;;;;;;;;;;;;;;;26.33;38.16;94078.84;5059098;28;7097;-38
2024/02/28 04:41:23;;;;;;;;;;;;;;;26.29;38.24;94072.91;5074648;28;7109;-38
2024/02/28 04:43:53;;;;;;;;;;;;;;;26.25;37.66;94072.47;5037595;28;9439;-38
2024/02/28 04:46:21;;;;;;;;;;;;;;;26.28;38.11;94085.19;5050912;28;7189;-38
2024/02/28 04:48:47;;;;;;;;;;;;;;;26.24;38.22;94076.47;5039249;28;7358;-38
2024/02/28 04:51:17;;;;;;;;;;;;;;;26.25;37.60;94077.22;5055447;28;7179;-38
2024/02/28 04:53:43;;;;;;;;;;;;;;;26.24;38.19;94079.22;5056149;28;8817;-38
2024/02/28 04:56:14;;;;;;;;;;;;;;;26.27;38.29;94077.44;5057168;28;8945;-38
2024/02/28 04:58:44;;;;;;;;;;;;;;;26.27;37.99;94078.19;5057669;28;7134;-38
2024/02/28 05:01:15;;;;;;;;;;;;;;;26.28;38.22;94082.44;5054091;28;7960;-38
2024/02/28 05:03:42;;;;;;;;;;;;;;;26.30;38.08;94085.41;5054330;28;9062;-40
2024/02/28 05:06:09;;;;;;;;;;;;;;;26.28;38.01;94087.19;5058704;28;7435;-39
2024/02/28 05:08:41;;;;;;;;;;;;;;;26.29;38.27;94083.19;5062904;28;9109;-39
2024/02/28 05:11:07;;;;;;;;;;;;;;;26.28;37.92;94087.94;5049930;28;7011;-40
2024/02/28 05:13:35;;;;;;;;;;;;;;;26.29;38.24;94096.97;5037429;28;6999;-40
2024/02/28 05:16:03;;;;;;;;;;;;;;;26.29;38.28;94105.22;5038858;28;9061;-40
2024/02/28 05:18:29;;;;;;;;;;;;;;;26.29;38.08;94105.22;5062694;28;9074;-42
2024/02/28 05:20:56;;;;;;;;;;;;;;;26.28;37.95;94110.00;5055626;28;7069;-39
2024/02/28 05:23:23;;;;;;;;;;;;;;;26.24;38.17;94104.03;5075328;28;8333;-40
2024/02/28 05:25:50;;;;;;;;;;;;;;;26.25;38.33;94099.28;5066984;28;7048;-39
2024/02/28 05:28:18;;;;;;;;;;;;;;;26.28;37.80;94120.28;5062757;28;8740;-40
2024/02/28 05:30:50;;;;;;;;;;;;;;;26.23;38.06;94110.81;5049606;28;8741;-40
2024/02/28 05:33:17;;;;;;;;;;;;;;;26.26;38.61;94115.28;5072607;28;7739;-40
2024/02/28 05:35:47;;;;;;;;;;;;;;;26.25;38.21;94121.34;5073566;28;7365;-39
2024/02/28 05:38:22;;;;;;;;;;;;;;;26.28;38.48;94136.81;5059104;28;9728;-39
2024/02/28 05:40:48;;;;;;;;;;;;;;;26.27;38.47;94133.34;5073894;28;7046;-39
2024/02/28 05:43:18;;;;;;;;;;;;;;;26.32;38.66;94137.28;5057871;28;7075;-40
2024/02/28 05:45:46;;;;;;;;;;;;;;;26.29;38.28;94132.81;5059450;28;7209;-39
2024/02/28 05:48:20;;;;;;;;;;;;;;;26.29;38.34;94143.84;5052806;28;9084;-39
2024/02/28 05:50:46;;;;;;;;;;;;;;;26.26;39.07;94144.88;5054056;28;7019;-39
2024/02/28 05:53:14;;;;;;;;;;;;;;;26.19;39.22;94148.22;5052425;28;9346;-40
2024/02/28 05:55:45;;;;;;;;;;;;;;;26.12;39.12;94152.31;5054185;28;8141;-39
2024/02/28 05:58:11;;;;;;;;;;;;;;;26.14;39.25;94152.53;5073264;28;9017;-39
2024/02/28 06:00:38;;;;;;;;;;;;;;;26.12;39.62;94155.81;5067800;28;6998;-39
2024/02/28 06:03:05;;;;;;;;;;;;;;;26.21;39.22;94159.47;5050542;28;7524;-38
2024/02/28 06:05:33;;;;;;;;;;;;;;;26.22;38.78;94160.97;5056794;28;7600;-38
2024/02/28 06:08:00;;;;;;;;;;;;;;;26.23;39.07;94165.22;5067865;28;7132;-38
2024/02/28 06:10:28;;;;;;;;;;;;;;;26.28;38.83;94172.66;5056098;28;8743;-38
2024/02/28 06:12:54;;;;;;;;;;;;;;;26.28;38.50;94176.16;5078580;28;8638;-38
2024/02/28 06:15:20;;;;;;;;;;;;;;;26.29;38.74;94176.91;5047469;28;9063;-38
2024/02/28 06:17:46;;;;;;;;;;;;;;;26.30;37.91;94189.41;5070731;28;7027;-38
2024/02/28 06:20:15;;;;;;;;;;;;;;;26.28;38.46;94195.47;5080671;28;9509;-38
2024/02/28 06:22:41;;;;;;;;;;;;;;;26.28;38.60;94195.47;5069671;28;7282;-38
2024/02/28 06:25:17;;;;;;;;;;;;;;;26.30;37.66;94203.97;5054654;28;7033;-38
2024/02/28 06:27:44;;;;;;;;;;;;;;;26.29;38.60;94208.00;5070686;28;6984;-38
2024/02/28 06:30:10;;;;;;;;;;;;;;;26.27;38.23;94212.53;5054123;28;7884;-38
2024/02/28 06:32:36;;;;;;;;;;;;;;;26.28;38.62;94214.00;5067205;28;7327;-38
2024/02/28 06:35:02;;;;;;;;;;;;;;;26.31;38.54;94218.50;5066391;28;7468;-38
2024/02/28 06:37:28;;;;;;;;;;;;;;;26.30;38.65;94215.00;5069436;28;9198;-38
2024/02/28 06:40:02;;;;;;;;;;;;;;;26.30;38.51;94225.28;5067099;28;9051;-38
2024/02/28 06:42:31;;;;;;;;;;;;;;;26.28;38.20;94233.31;5054865;28;8685;-38
2024/02/28 06:45:11;;;;;;;;;;;;;;;26.31;38.94;94232.28;5072796;28;7036;-38
2024/02/28 06:47:45;;;;;;;;;;;;;;;26.30;38.67;94237.06;5075406;28;9537;-38
2024/02/28 06:50:27;;;;;;;;;;;;;;;26.31;38.18;94232.28;5068645;28;7123;-38
2024/02/28 06:52:58;;;;;;;;;;;;;;;26.36;39.30;94239.75;5073336;28;7958;-38
2024/02/28 06:55:29;;;;;;;;;;;;;;;26.37;38.90;94241.22;5071655;28;7031;-38
2024/02/28 06:57:57;;;;;;;;;;;;;;;26.31;38.65;94240.56;5055206;28;8796;-38
2024/02/28 07:00:23;;;;;;;;;;;;;;;26.33;38.50;94244.28;5070239;28;8218;-38
2024/02/28 07:02:48;;;;;;;;;;;;;;;26.31;38.96;94246.81;5058245;28;9360;-38
2024/02/28 07:05:18;;;;;;;;;;;;;;;26.34;38.80;94247.81;5058755;28;7055;-38
2024/02/28 07:07:54;;;;;;;;;;;;;;;26.35;39.20;94254.78;5073720;28;9154;-38
2024/02/28 07:10:23;;;;;;;;;;;;;;;26.31;39.06;94251.59;5076799;28;9047;-38
2024/02/28 07:12:49;;;;;;;;;;;;;;;26.34;39.74;94258.84;5076295;28;7199;-38
2024/02/28 07:15:15;;;;;;;;;;;;;;;26.33;39.29;94258.09;5063798;28;7165;-44
2024/02/28 07:17:50;;;;;;;;;;;;;;;26.33;39.50;94257.31;5077830;28;7372;-42
2024/02/28 07:20:30;;;;;;;;;;;;;;;26.32;39.77;94269.63;5055937;28;7564;-41
2024/02/28 07:23:05;;;;;;;;;;;;;;;26.33;39.75;94271.13;5071063;28;7090;-40
2024/02/28 07:25:40;;;;;;;;;;;;;;;26.34;39.11;94272.63;5054400;28;7139;-44
2024/02/28 07:28:08;;;;;;;;;;;;;;;26.33;39.90;94271.88;5078852;28;7092;-42
2024/02/28 07:30:45;;;;;;;;;;;;;;;26.32;39.64;94273.13;5056339;28;7254;-41
2024/02/28 07:33:50;;;;;;;;;;;;;;;26.30;39.61;94270.13;5059578;28;9093;-40
2024/02/28 07:36:45;;;;;;;;;;;;;;;26.32;39.56;94275.16;5012795;28;7336;-40
2024/02/28 07:39:12;;;;;;;;;;;;;;;26.31;39.76;94281.91;4984585;28;7272;-42
2024/02/28 07:42:10;;;;;;;;;;;;;;;26.33;39.63;94287.66;4991941;28;7363;-39
2024/02/28 07:44:41;;;;;;;;;;;;;;;26.32;39.22;94278.63;4956204;28;7118;-42
2024/02/28 07:47:41;;;;;;;;;;;;;;;26.34;39.42;94283.66;4955804;28;7227;-42
2024/02/28 07:50:07;;;;;;;;;;;;;;;26.33;39.14;94285.66;4901009;29;8231;-40
2024/02/28 07:52:43;;;;;;;;;;;;;;;26.34;39.86;94283.66;4905990;29;7157;-39
2024/02/28 07:55:10;;;;;;;;;;;;;;;26.33;38.92;94288.41;4898598;29;7018;-42
2024/02/28 07:57:36;;;;;;;;;;;;;;;26.31;39.56;94282.66;4898368;29;9141;-41
2024/02/28 08:00:04;;;;;;;;;;;;;;;26.34;39.50;94295.41;4894818;29;7360;-39
2024/02/28 08:02:30;;;;;;;;;;;;;;;26.34;39.51;94292.66;4903545;29;7372;-40
2024/02/28 08:04:56;;;;;;;;;;;;;;;26.34;39.58;94289.88;4904747;29;7020;-41
2024/02/28 08:07:25;;;;;;;;;;;;;;;26.34;39.42;94300.91;4914401;28;8877;-40
2024/02/28 08:09:50;;;;;;;;;;;;;;;26.33;39.48;94295.94;4947159;28;9113;-41
2024/02/28 08:12:16;;;;;;;;;;;;;;;26.36;39.26;94308.69;4936951;28;7567;-43
2024/02/28 08:14:42;;;;;;;;;;;;;;;26.35;39.12;94309.94;4935697;28;9465;-41
2024/02/28 08:17:13;;;;;;;;;;;;;;;26.35;39.33;94313.47;4907198;29;7041;-40
2024/02/28 08:19:41;;;;;;;;;;;;;;;26.34;39.26;94311.22;4911005;28;7100;-40
2024/02/28 08:22:10;;;;;;;;;;;;;;;26.34;38.89;94317.47;4962143;28;7414;-40
2024/02/28 08:24:42;;;;;;;;;;;;;;;26.34;38.90;94311.22;4984842;28;7024;-55
2024/02/28 08:27:08;;;;;;;;;;;;;;;26.34;38.35;94316.75;5072934;28;7029;-55
2024/02/28 08:29:43;;;;;;;;;;;;;;;26.31;38.67;94312.25;5062862;28;7225;-54
2024/02/28 08:32:13;;;;;;;;;;;;;;;26.32;38.73;94324.78;5045053;28;7661;-54
2024/02/28 08:34:39;;;;;;;;;;;;;;;26.30;38.46;94319.00;5074266;28;7238;-55
2024/02/28 08:37:10;;;;;;;;;;;;;;;26.28;38.62;94313.28;5062555;28;9010;-56
2024/02/28 08:39:38;;;;;;;;;;;;;;;26.28;39.31;94325.06;5084238;28;9094;-55
2024/02/28 08:42:12;;;;;;;;;;;;;;;26.27;39.19;94326.34;5071651;28;6975;-55
2024/02/28 08:44:47;;;;;;;;;;;;;;;26.27;39.32;94328.34;5057624;28;8837;-55
2024/02/28 08:47:27;;;;;;;;;;;;;;;26.29;39.10;94334.09;5057951;28;7683;-55
2024/02/28 08:50:09;;;;;;;;;;;;;;;26.30;39.08;94338.31;5064751;28;9055;-53
2024/02/28 08:52:36;;;;;;;;;;;;;;;26.30;39.21;94341.06;5059040;28;8899;-55
2024/02/28 08:55:05;;;;;;;;;;;;;;;26.29;38.82;94342.34;5065912;28;8865;-55
2024/02/28 08:57:32;;;;;;;;;;;;;;;26.29;39.13;94336.84;5069833;28;8232;-54
2024/02/28 09:00:28;;;;;;;;;;;;;;;26.29;38.95;94342.34;5060711;28;7148;-55
2024/02/28 09:03:14;;;;;;;;;;;;;;;26.28;39.33;94349.88;5010661;28;8756;-54
2024/02/28 09:05:51;;;;;;;;;;;;;;;26.30;38.90;94349.34;5015809;28;7082;-56
2024/02/28 09:09:11;;;;;;;;;;;;;;;26.30;38.62;94354.84;5047487;28;8910;-55
2024/02/28 09:11:37;;;;;;;;;;;;;;;26.28;39.34;94354.63;5002628;28;7465;-55
2024/02/28 09:14:03;;;;;;;;;;;;;;;26.29;38.79;94358.91;4996597;28;7453;-55
2024/02/28 09:16:29;;;;;;;;;;;;;;;26.28;38.84;94362.91;4978776;28;9458;-55
2024/02/28 09:18:54;;;;;;;;;;;;;;;26.29;38.92;94358.91;4989235;28;7050;-55
2024/02/28 09:21:58;;;;;;;;;;;;;;;26.29;39.42;94369.91;5003937;28;9090;-55
2024/02/28 09:24:37;;;;;;;;;;;;;;;26.29;39.38;94367.91;4943923;28;9044;-55
2024/02/28 09:27:05;;;;;;;;;;;;;;;26.31;38.81;94367.41;4948351;28;7024;-55
2024/02/28 09:29:33;;;;;;;;;;;;;;;26.30;38.79;94368.66;4940459;28;8815;-54
2024/02/28 09:32:18;;;;;;;;;;;;;;;26.28;39.16;94376.69;4935057;29;9521;-55
2024/02/28 09:35:10;;;;;;;;;;;;;;;26.29;38.71;94367.16;4949611;28;9107;-38
2024/02/28 09:37:40;;;;;;;;;;;;;;;26.29;39.31;94370.69;4953659;28;8688;-38
2024/02/28 09:40:18;;;;;;;;;;;;;;;26.29;38.50;94369.91;4964088;28;7294;-38
2024/02/28 09:43:02;;;;;;;;;;;;;;;26.28;38.84;94368.41;4944118;28;7506;-38
2024/02/28 09:45:57;;;;;;;;;;;;;;;26.30;39.29;94366.63;4961213;28;7463;-38
2024/02/28 09:48:28;;;;;;;;;;;;;;;26.31;38.84;94361.88;4990746;28;7879;-38
2024/02/28 09:50:56;;;;;;;;;;;;;;;26.33;38.56;94353.84;4989244;28;7638;-38
2024/02/28 09:53:22;;;;;;;;;;;;;;;26.33;38.37;94362.88;4974332;28;9382;-38
2024/02/28 09:56:09;;;;;;;;;;;;;;;26.34;38.38;94364.34;4992324;28;7030;-38
2024/02/28 09:58:52;;;;;;;;;;;;;;;26.36;38.27;94369.38;5041954;28;8851;-38
2024/02/28 10:01:30;;;;;;;;;;;;;;;26.34;37.77;94369.84;5081797;28;8954;-37
2024/02/28 10:04:10;;;;;;;;;;;;;;;26.34;37.80;94369.84;5055672;28;7054;-37
2024/02/28 10:06:41;;;;;;;;;;;;;;;26.36;37.72;94366.59;5063429;28;9287;-38
2024/02/28 10:09:26;;;;;;;;;;;;;;;26.35;38.08;94365.84;5074243;28;7375;-38
2024/02/28 10:11:52;;;;;;;;;;;;;;;26.34;37.66;94367.09;5059476;28;7203;-38
2024/02/28 10:14:19;;;;;;;;;;;;;;;26.32;38.28;94368.91;5058355;28;7265;-38
2024/02/28 10:16:45;;;;;;;;;;;;;;;26.33;37.74;94367.63;5079782;28;7282;-38
2024/02/28 10:19:37;;;;;;;;;;;;;;;26.32;38.32;94357.88;5074324;28;7238;-38
2024/02/28 10:22:12;;;;;;;;;;;;;;;26.32;38.15;94363.38;5068236;28;9531;-38
2024/02/28 10:24:40;;;;;;;;;;;;;;;26.29;38.46;94358.91;5082077;28;8776;-38
2024/02/28 10:27:23;;;;;;;;;;;;;;;26.30;37.83;94361.13;5065666;28;7339;-38
2024/02/28 10:30:07;;;;;;;;;;;;;;;26.29;38.35;94353.38;5055753;28;9141;-38
2024/02/28 10:33:00;;;;;;;;;;;;;;;26.30;38.50;94358.38;5056236;28;7827;-38
2024/02/28 10:35:27;;;;;;;;;;;;;;;26.31;38.75;94361.88;4975927;28;7567;-38
2024/02/28 10:38:06;;;;;;;;;;;;;;;26.29;38.67;94358.91;4985897;28;7968;-46
2024/02/28 10:40:53;;;;;;;;;;;;;;;26.34;38.60;94358.09;4988185;28;7366;-38
2024/02/28 10:43:23;;;;;;;;;;;;;;;26.32;38.99;94363.38;5010822;28;7269;-42
2024/02/28 10:45:51;;;;;;;;;;;;;;;26.33;38.84;94364.88;4990973;28;9000;-38
2024/02/28 10:48:20;;;;;;;;;;;;;;;26.32;38.79;94364.13;4973809;28;9033;-39
2024/02/28 10:50:47;;;;;;;;;;;;;;;26.32;39.54;94360.63;5012781;28;7704;-38
2024/02/28 10:53:36;;;;;;;;;;;;;;;26.29;40.52;94367.91;5001382;28;7261;-38
2024/02/28 10:56:16;;;;;;;;;;;;;;;26.29;40.17;94361.66;5025155;28;9067;-38
2024/02/28 10:58:59;;;;;;;;;;;;;;;26.30;40.65;94371.41;5003728;28;7161;-38
2024/02/28 11:01:43;;;;;;;;;;;;;;;26.32;40.17;94360.63;5014135;28;7015;-38
2024/02/28 11:04:23;;;;;;;;;;;;;;;26.34;39.63;94360.84;4996544;28;7896;-38
2024/02/28 11:07:02;;;;;;;;;;;;;;;26.34;39.78;94363.63;5006769;28;7100;-38
2024/02/28 11:09:32;;;;;;;;;;;;;;;26.35;39.88;94367.84;5017473;28;8814;-37
2024/02/28 11:11:58;;;;;;;;;;;;;;;26.34;39.99;94366.38;5017567;28;7222;-38
2024/02/28 11:14:26;;;;;;;;;;;;;;;26.34;39.86;94363.63;5061137;28;7130;-38
2024/02/28 11:17:13;;;;;;;;;;;;;;;26.34;39.58;94358.09;5046982;28;7409;-38
2024/02/28 11:19:39;;;;;;;;;;;;;;;26.37;39.66;94366.09;5065365;28;7309;-38
2024/02/28 11:22:22;;;;;;;;;;;;;;;26.38;40.13;94366.84;5068167;28;7235;-38
2024/02/28 11:25:07;;;;;;;;;;;;;;;26.37;39.66;94365.31;5043567;28;7245;-39
2024/02/28 11:27:44;;;;;;;;;;;;;;;26.36;39.99;94359.06;5063362;28;7682;-38
2024/02/28 11:30:22;;;;;;;;;;;;;;;26.36;40.27;94364.56;5085909;28;8789;-39
2024/02/28 11:33:24;;;;;;;;;;;;;;;26.36;39.82;94363.84;5082064;28;8731;-38
2024/02/28 11:35:58;;;;;;;;;;;;;;;26.33;40.30;94360.09;5021495;28;8983;-38
2024/02/28 11:38:40;;;;;;;;;;;;;;;26.36;39.83;94361.09;5004478;28;9029;-38
2024/02/28 11:41:34;;;;;;;;;;;;;;;26.38;39.54;94366.84;4998777;28;7018;-38
2024/02/28 11:44:13;;;;;;;;;;;;;;;26.36;39.58;94363.84;4999608;28;9167;-38
2024/02/28 11:46:52;;;;;;;;;;;;;;;26.37;39.28;94359.81;4998124;28;9107;-38
2024/02/28 11:49:19;;;;;;;;;;;;;;;26.37;39.46;94365.31;4996078;28;7123;-37
2024/02/28 11:52:01;;;;;;;;;;;;;;;26.39;39.48;94358.03;5004294;28;7092;-38
2024/02/28 11:54:45;;;;;;;;;;;;;;;26.42;40.02;94359.00;5020844;28;7263;-44
2024/02/28 11:57:42;;;;;;;;;;;;;;;26.41;39.70;94354.75;5019715;28;7098;-42
2024/02/28 12:00:27;;;;;;;;;;;;;;;26.39;39.42;94357.28;5018409;28;7270;-42
2024/02/28 12:03:11;;;;;;;;;;;;;;;26.40;39.34;94359.53;5024127;28;7124;-42
2024/02/28 12:05:44;;;;;;;;;;;;;;;26.40;39.97;94367.81;5018576;28;7882;-42
2024/02/28 12:08:27;;;;;;;;;;;;;;;26.41;39.79;94357.50;5014430;28;7040;-42
2024/02/28 12:10:54;;;;;;;;;;;;;;;26.40;39.83;94367.81;5058432;28;7340;-43
2024/02/28 12:13:22;;;;;;;;;;;;;;;26.40;39.54;94367.06;5080113;28;7123;-42
2024/02/28 12:15:49;;;;;;;;;;;;;;;26.37;39.36;94365.31;5078343;28;8372;-43
2024/02/28 12:18:18;;;;;;;;;;;;;;;26.39;39.65;94369.06;5058863;28;7298;-42
2024/02/28 12:20:45;;;;;;;;;;;;;;;26.39;39.20;94369.06;5070998;28;7046;-42
2024/02/28 12:23:11;;;;;;;;;;;;;;;26.38;39.10;94364.06;5060830;28;7107;-42
2024/02/28 12:25:37;;;;;;;;;;;;;;;26.37;39.76;94371.59;5057874;28;7025;-42
2024/02/28 12:28:06;;;;;;;;;;;;;;;26.38;39.13;94367.56;5055539;28;9261;-42
2024/02/28 12:30:44;;;;;;;;;;;;;;;26.38;39.12;94366.84;5058090;28;7242;-43
2024/02/28 12:33:13;;;;;;;;;;;;;;;26.41;39.38;94365.78;5050494;28;7037;-42
2024/02/28 12:35:41;;;;;;;;;;;;;;;26.35;39.63;94362.34;5061718;28;8179;-42
2024/02/28 12:38:15;;;;;;;;;;;;;;;26.40;39.50;94376.09;5077484;28;7208;-42
2024/02/28 12:40:52;;;;;;;;;;;;;;;26.38;39.60;94369.59;5058530;28;9178;-42
2024/02/28 12:43:19;;;;;;;;;;;;;;;26.37;39.45;94362.56;5080782;28;8866;-47
2024/02/28 12:45:49;;;;;;;;;;;;;;;26.36;39.45;94366.59;5064570;28;7656;-43
2024/02/28 12:48:15;;;;;;;;;;;;;;;26.37;39.74;94370.84;5056583;28;7211;-43
2024/02/28 12:50:43;;;;;;;;;;;;;;;26.38;39.35;94372.34;5074730;28;7599;-42
2024/02/28 12:53:10;;;;;;;;;;;;;;;26.37;39.17;94370.84;5051973;28;9382;-43
2024/02/28 12:55:37;;;;;;;;;;;;;;;26.39;39.50;94369.06;5057360;28;7876;-42
2024/02/28 12:58:12;;;;;;;;;;;;;;;26.37;39.21;94370.84;5063209;28;7301;-42
2024/02/28 13:00:38;;;;;;;;;;;;;;;26.36;39.11;94369.38;5071977;28;9182;-42
2024/02/28 13:03:04;;;;;;;;;;;;;;;26.39;39.11;94376.59;5057611;28;7223;-42
2024/02/28 13:05:31;;;;;;;;;;;;;;;26.38;39.32;94375.09;5073627;28;7000;-40
2024/02/28 13:07:57;;;;;;;;;;;;;;;26.39;39.35;94374.56;5049524;28;7489;-40
2024/02/28 13:10:25;;;;;;;;;;;;;;;26.39;39.47;94374.56;5058881;28;9152;-39
2024/02/28 13:12:53;;;;;;;;;;;;;;;26.37;39.08;94377.09;5057481;28;7084;-40
2024/02/28 13:15:20;;;;;;;;;;;;;;;26.38;39.39;94375.09;5073388;28;7102;-40
2024/02/28 13:17:49;;;;;;;;;;;;;;;26.40;39.01;94376.09;5067826;28;7209;-40
2024/02/28 13:20:16;;;;;;;;;;;;;;;26.43;39.78;94382.56;5055163;28;8806;-40
2024/02/28 13:22:46;;;;;;;;;;;;;;;26.42;38.94;94384.59;5056501;28;7116;-40
2024/02/28 13:25:14;;;;;;;;;;;;;;;26.42;39.48;94389.34;5066199;28;8966;-40
2024/02/28 13:27:59;;;;;;;;;;;;;;;26.44;39.72;94393.09;5070531;28;9399;-39